createdAt,value
2023-05-10T00:00:32.357Z,100579.00
2023-05-10T00:03:35.041Z,100550.44
2023-05-10T00:06:37.402Z,100567.03
2023-05-10T00:09:40.096Z,100548.28
2023-05-10T00:12:43.202Z,100555.53
2023-05-10T00:15:46.070Z,100544.25
2023-05-10T00:18:48.417Z,100564.62
2023-05-10T00:21:51.076Z,100550.47
2023-05-10T00:24:53.358Z,100565.69
2023-05-10T00:27:59.263Z,100544.25
2023-05-10T00:31:01.605Z,100533.41
2023-05-10T00:34:05.745Z,100553.47
2023-05-10T00:37:08.150Z,100533.66
2023-05-10T00:40:11.262Z,100545.16
2023-05-10T00:43:13.611Z,100557.03
2023-05-10T00:46:17.392Z,100538.59
2023-05-10T00:49:20.525Z,100550.25
2023-05-10T00:52:24.704Z,100537.47
2023-05-10T00:55:27.120Z,100551.16
2023-05-10T00:58:29.736Z,100559.34
2023-05-10T01:01:32.245Z,100550.22
2023-05-10T01:04:36.479Z,100547.00
2023-05-10T01:07:39.782Z,100552.09
2023-05-10T01:10:43.969Z,100526.59
2023-05-10T01:13:48.927Z,100544.72
2023-05-10T01:16:51.810Z,100551.03
2023-05-10T01:19:54.128Z,100527.16
2023-05-10T01:23:02.516Z,100546.41
2023-05-10T01:26:20.349Z,100539.38
2023-05-10T01:30:15.537Z,100544.91
2023-05-10T01:33:53.281Z,100542.50
2023-05-10T01:37:26.309Z,100538.47
2023-05-10T01:40:37.366Z,100536.84
2023-05-10T01:44:05.281Z,100539.97
2023-05-10T01:47:11.832Z,100519.34
2023-05-10T01:50:25.742Z,100546.19
2023-05-10T01:53:29.092Z,100534.31
2023-05-10T01:56:34.333Z,100515.31
2023-05-10T01:59:41.925Z,100535.47
2023-05-10T02:02:49.826Z,100528.78
2023-05-10T02:05:54.654Z,100526.47
2023-05-10T02:08:58.449Z,100507.94
2023-05-10T02:12:03.692Z,100525.78
2023-05-10T02:15:08.322Z,100499.31
2023-05-10T02:18:12.601Z,100504.16
2023-05-10T02:21:17.389Z,100521.22
2023-05-10T02:24:22.581Z,100492.28
2023-05-10T02:27:28.378Z,100495.19
2023-05-10T02:30:33.476Z,100497.72
2023-05-10T02:33:36.354Z,100515.00
2023-05-10T02:36:40.364Z,100496.00
2023-05-10T02:39:45.098Z,100515.78
2023-05-10T02:42:49.864Z,100517.28
2023-05-10T02:45:52.492Z,100498.84
2023-05-10T02:48:55.115Z,100519.13
2023-05-10T02:52:04.935Z,100501.28
2023-05-10T02:55:10.560Z,100515.09
2023-05-10T02:58:13.157Z,100502.09
2023-05-10T03:01:16.676Z,100518.34
2023-05-10T03:04:19.338Z,100514.63
2023-05-10T03:07:22.352Z,100522.13
2023-05-10T03:10:28.873Z,100501.28
2023-05-10T03:14:07.362Z,100514.28
2023-05-10T03:17:30.759Z,100497.94
2023-05-10T03:20:42.487Z,100521.75
2023-05-10T03:23:56.596Z,100514.16
2023-05-10T03:27:03.950Z,100511.50
2023-05-10T03:30:09.010Z,100489.38
2023-05-10T03:33:13.768Z,100514.25
2023-05-10T03:36:17.162Z,100518.19
2023-05-10T03:39:20.305Z,100481.88
2023-05-10T03:42:27.564Z,100519.56
2023-05-10T03:45:31.743Z,100519.56
2023-05-10T03:48:35.942Z,100517.25
2023-05-10T03:51:38.570Z,100523.59
2023-05-10T03:54:40.890Z,100517.25
2023-05-10T03:57:43.649Z,100495.56
2023-05-10T04:00:46.514Z,100501.09
2023-05-10T04:03:49.628Z,100524.53
2023-05-10T04:06:52.051Z,100524.53
2023-05-10T04:09:55.201Z,100518.19
2023-05-10T04:12:58.066Z,100515.19
2023-05-10T04:16:00.813Z,100511.03
2023-05-10T04:19:03.337Z,100517.84
2023-05-10T04:22:06.149Z,100503.22
2023-05-10T04:25:09.091Z,100487.53
2023-05-10T04:28:11.840Z,100496.47
2023-05-10T04:31:14.187Z,100495.81
2023-05-10T04:34:16.975Z,100518.87
2023-05-10T04:37:19.410Z,100500.97
2023-05-10T04:40:22.072Z,100500.16
2023-05-10T04:43:24.428Z,100500.84
2023-05-10T04:46:27.136Z,100533.03
2023-05-10T04:49:30.675Z,100526.72
2023-05-10T04:52:33.275Z,100526.72
2023-05-10T04:55:35.532Z,100520.47
2023-05-10T04:58:38.352Z,100502.69
2023-05-10T05:01:40.826Z,100531.78
2023-05-10T05:04:43.489Z,100526.72
2023-05-10T05:07:45.820Z,100524.22
2023-05-10T05:10:51.172Z,100518.78
2023-05-10T05:13:53.590Z,100524.22
2023-05-10T05:16:56.900Z,100518.87
2023-05-10T05:19:59.246Z,100513.12
2023-05-10T05:23:02.448Z,100534.69
2023-05-10T05:26:05.041Z,100539.38
2023-05-10T05:29:07.621Z,100543.31
2023-05-10T05:32:09.966Z,100538.00
2023-05-10T05:35:12.724Z,100520.41
2023-05-10T05:38:15.368Z,100532.75
2023-05-10T05:41:18.181Z,100525.59
2023-05-10T05:44:20.883Z,100551.38
2023-05-10T05:47:23.716Z,100554.59
2023-05-10T05:50:26.140Z,100531.81
2023-05-10T05:53:28.816Z,100536.66
2023-05-10T05:56:31.661Z,100553.94
2023-05-10T05:59:34.359Z,100550.56
2023-05-10T06:02:55.590Z,100542.28
2023-05-10T06:05:58.243Z,100560.59
2023-05-10T06:09:00.768Z,100537.66
2023-05-10T06:12:03.437Z,100558.03
2023-05-10T06:15:06.172Z,100537.28
2023-05-10T06:18:08.926Z,100561.25
2023-05-10T06:21:11.434Z,100558.03
2023-05-10T06:24:15.240Z,100548.34
2023-05-10T06:27:17.806Z,100552.91
2023-05-10T06:30:20.465Z,100561.50
2023-05-10T06:33:23.076Z,100564.69
2023-05-10T06:36:27.433Z,100571.59
2023-05-10T06:39:29.991Z,100575.25
2023-05-10T06:42:32.647Z,100577.44
2023-05-10T06:45:35.710Z,100578.53
2023-05-10T06:48:38.448Z,100572.44
2023-05-10T06:51:41.218Z,100574.09
2023-05-10T06:54:44.086Z,100573.91
2023-05-10T06:57:46.580Z,100577.09
2023-05-10T07:00:52.195Z,100571.38
2023-05-10T07:03:54.565Z,100570.91
2023-05-10T07:06:57.683Z,100499.84
2023-05-10T07:10:00.268Z,100571.41
2023-05-10T07:13:03.172Z,100569.69
2023-05-10T07:16:07.410Z,100576.56
2023-05-10T07:19:10.427Z,100543.97
2023-05-10T07:22:12.810Z,100567.56
2023-05-10T07:25:15.780Z,100525.91
2023-05-10T07:28:18.321Z,100563.63
2023-05-10T07:31:21.127Z,100563.59
2023-05-10T07:34:23.518Z,100534.06
2023-05-10T07:37:26.177Z,100557.19
2023-05-10T07:40:29.401Z,100533.78
2023-05-10T07:43:32.000Z,100532.50
2023-05-10T07:46:34.399Z,100547.25
2023-05-10T07:49:37.056Z,100533.19
2023-05-10T07:52:39.402Z,100529.38
2023-05-10T07:55:42.062Z,100505.66
2023-05-10T07:58:44.395Z,100534.28
2023-05-10T08:01:47.132Z,100521.00
2023-05-10T08:04:49.824Z,100549.53
2023-05-10T08:07:52.232Z,100536.66
2023-05-10T08:10:54.849Z,100533.19
2023-05-10T08:13:57.202Z,100528.56
2023-05-10T08:16:59.865Z,100545.19
2023-05-10T08:20:02.392Z,100562.59
2023-05-10T08:23:05.081Z,100545.06
2023-05-10T08:26:07.793Z,100541.63
2023-05-10T08:29:10.608Z,100563.88
2023-05-10T08:32:12.928Z,100556.91
2023-05-10T08:35:17.062Z,100548.16
2023-05-10T08:38:19.797Z,100530.22
2023-05-10T08:41:24.868Z,100526.91
2023-05-10T08:44:27.513Z,100531.16
2023-05-10T08:47:30.473Z,100530.47
2023-05-10T08:50:33.481Z,100527.91
2023-05-10T08:53:39.504Z,100531.84
2023-05-10T08:56:42.003Z,100543.19
2023-05-10T08:59:45.040Z,100520.16
2023-05-10T09:02:48.973Z,100550.41
2023-05-10T09:05:52.087Z,100530.50
2023-05-10T09:08:54.588Z,100549.75
2023-05-10T09:11:57.999Z,100520.25
2023-05-10T09:15:01.469Z,100554.31
2023-05-10T09:18:05.062Z,100545.97
2023-05-10T09:21:07.464Z,100541.25
2023-05-10T09:24:10.525Z,100530.44
2023-05-10T09:27:12.893Z,100555.25
2023-05-10T09:30:25.387Z,100524.84
2023-05-10T09:33:28.407Z,100523.28
2023-05-10T09:36:31.032Z,100536.84
2023-05-10T09:39:35.036Z,100533.66
2023-05-10T09:42:37.744Z,100530.47
2023-05-10T09:45:42.592Z,100539.56
2023-05-10T09:48:47.279Z,100531.81
2023-05-10T09:52:04.892Z,100534.91
2023-05-10T09:55:07.961Z,100506.75
2023-05-10T09:58:13.355Z,100521.66
2023-05-10T10:01:16.036Z,100514.47
2023-05-10T10:04:18.867Z,100533.66
2023-05-10T10:07:25.814Z,100531.25
2023-05-10T10:10:29.512Z,100507.25
2023-05-10T10:13:33.133Z,100496.44
2023-05-10T10:16:36.235Z,100522.47
2023-05-10T10:19:38.852Z,100513.28
2023-05-10T10:22:44.389Z,100518.47
2023-05-10T10:25:49.950Z,100504.72
2023-05-10T10:29:27.811Z,100486.69
2023-05-10T10:32:49.921Z,100505.41
2023-05-10T10:35:54.364Z,100496.78
2023-05-10T10:39:01.664Z,100469.38
2023-05-10T10:42:05.456Z,100489.47
2023-05-10T10:45:14.786Z,100495.56
2023-05-10T10:48:22.777Z,100488.44
2023-05-10T10:51:25.295Z,100472.09
2023-05-10T10:54:29.540Z,100481.37
2023-05-10T10:57:43.952Z,100466.56
2023-05-10T11:00:46.745Z,100472.81
2023-05-10T11:04:01.593Z,100466.47
2023-05-10T11:07:27.654Z,100450.31
2023-05-10T11:10:30.157Z,100457.81
2023-05-10T11:13:49.190Z,100432.91
2023-05-10T11:16:53.372Z,100454.72
2023-05-10T11:20:25.774Z,100455.09
2023-05-10T11:23:48.498Z,100412.84
2023-05-10T11:26:54.742Z,100447.25
2023-05-10T11:29:57.164Z,100448.41
2023-05-10T11:32:59.935Z,100445.56
2023-05-10T11:36:02.426Z,100440.72
2023-05-10T11:39:05.965Z,100444.56
2023-05-10T11:42:10.763Z,100404.94
2023-05-10T11:45:13.627Z,100436.16
2023-05-10T11:48:17.772Z,100383.09
2023-05-10T11:51:25.067Z,100430.81
2023-05-10T11:54:27.476Z,100413.19
2023-05-10T11:57:31.310Z,100410.37
2023-05-10T12:00:34.013Z,100420.72
2023-05-10T12:03:37.771Z,100425.00
2023-05-10T12:06:41.502Z,100443.31
2023-05-10T12:09:46.043Z,100444.47
2023-05-10T12:12:49.180Z,100428.09
2023-05-10T12:15:51.830Z,100439.66
2023-05-10T12:19:00.310Z,100428.88
2023-05-10T12:22:06.493Z,100355.19
2023-05-10T12:25:10.087Z,100403.75
2023-05-10T12:28:13.160Z,100352.87
2023-05-10T12:31:15.757Z,100362.87
2023-05-10T12:34:44.214Z,100427.47
2023-05-10T12:37:46.603Z,100399.06
2023-05-10T12:40:49.347Z,100347.91
2023-05-10T12:43:52.495Z,100399.94
2023-05-10T12:46:55.144Z,100388.63
2023-05-10T12:49:57.546Z,100411.81
2023-05-10T12:53:00.270Z,100414.06
2023-05-10T12:56:02.982Z,100403.66
2023-05-10T12:59:05.745Z,100398.41
2023-05-10T13:02:08.242Z,100406.06
2023-05-10T13:05:12.215Z,100396.87
2023-05-10T13:08:14.842Z,100387.75
2023-05-10T13:11:18.084Z,100348.66
2023-05-10T13:14:21.417Z,100304.72
2023-05-10T13:17:24.207Z,100335.19
2023-05-10T13:20:26.668Z,100377.66
2023-05-10T13:23:29.315Z,100363.25
2023-05-10T13:26:31.790Z,100344.50
2023-05-10T13:29:34.545Z,100354.50
2023-05-10T13:32:37.168Z,100341.72
2023-05-10T13:35:39.912Z,100348.91
2023-05-10T13:38:42.828Z,100350.09
2023-05-10T13:41:45.732Z,100351.28
2023-05-10T13:44:48.170Z,100339.72
2023-05-10T13:47:51.134Z,100335.28
2023-05-10T13:50:53.689Z,100358.03
2023-05-10T13:53:56.459Z,100332.06
2023-05-10T13:56:58.902Z,100320.91
2023-05-10T14:00:01.690Z,100324.87
2023-05-10T14:03:12.079Z,100323.69
2023-05-10T14:06:15.299Z,100322.47
2023-05-10T14:09:18.147Z,100301.66
2023-05-10T14:12:20.912Z,100318.41
2023-05-10T14:15:23.449Z,100308.81
2023-05-10T14:18:26.961Z,100264.00
2023-05-10T14:21:31.712Z,100292.75
2023-05-10T14:24:34.567Z,100305.97
2023-05-10T14:27:37.594Z,100263.22
2023-05-10T14:30:40.341Z,100303.59
2023-05-10T14:33:42.864Z,100287.97
2023-05-10T14:36:45.829Z,100299.97
2023-05-10T14:39:48.333Z,100306.31
2023-05-10T14:42:51.397Z,100303.91
2023-05-10T14:45:54.047Z,100293.16
2023-05-10T14:48:56.871Z,100296.75
2023-05-10T14:51:59.426Z,100303.91
2023-05-10T14:55:02.486Z,100298.34
2023-05-10T14:58:06.880Z,100302.28
2023-05-10T15:01:09.673Z,100302.25
2023-05-10T15:04:14.430Z,100303.03
2023-05-10T15:07:19.422Z,100258.56
2023-05-10T15:10:21.807Z,100310.06
2023-05-10T15:13:24.550Z,100294.00
2023-05-10T15:16:27.172Z,100305.19
2023-05-10T15:19:30.520Z,100311.50
2023-05-10T15:22:34.279Z,100312.69
2023-05-10T15:25:38.282Z,100288.25
2023-05-10T15:28:40.819Z,100305.37
2023-05-10T15:31:43.721Z,100278.59
2023-05-10T15:34:46.229Z,100283.34
2023-05-10T15:37:50.450Z,100284.94
2023-05-10T15:40:56.054Z,100278.56
2023-05-10T15:44:00.745Z,100297.81
2023-05-10T15:47:06.483Z,100242.22
2023-05-10T15:50:10.075Z,100277.06
2023-05-10T15:53:14.339Z,100283.44
2023-05-10T15:56:17.226Z,100279.44
2023-05-10T15:59:19.584Z,100214.97
2023-05-10T16:02:23.519Z,100274.97
2023-05-10T16:05:29.976Z,100282.94
2023-05-10T16:08:33.655Z,100287.81
2023-05-10T16:11:36.412Z,100305.31
2023-05-10T16:14:38.776Z,100300.91
2023-05-10T16:17:41.941Z,100286.12
2023-05-10T16:20:45.190Z,100302.88
2023-05-10T16:23:48.101Z,100275.34
2023-05-10T16:26:50.649Z,100293.31
2023-05-10T16:30:07.234Z,100285.72
2023-05-10T16:33:11.493Z,100291.28
2023-05-10T16:36:14.786Z,100226.38
2023-05-10T16:39:17.223Z,100250.34
2023-05-10T16:42:20.123Z,100303.97
2023-05-10T16:45:23.132Z,100265.50
2023-05-10T16:48:25.963Z,100287.13
2023-05-10T16:51:29.719Z,100291.03
2023-05-10T16:54:32.705Z,100297.47
2023-05-10T16:57:35.372Z,100238.84
2023-05-10T17:00:39.040Z,100309.28
2023-05-10T17:03:41.656Z,100315.63
2023-05-10T17:06:44.680Z,100295.56
2023-05-10T17:09:47.127Z,100299.88
2023-05-10T17:12:49.950Z,100291.66
2023-05-10T17:15:52.675Z,100320.16
2023-05-10T17:18:56.898Z,100330.44
2023-05-10T17:21:59.501Z,100312.75
2023-05-10T17:25:02.198Z,100308.31
2023-05-10T17:28:04.823Z,100337.41
2023-05-10T17:31:07.637Z,100316.91
2023-05-10T17:34:11.024Z,100304.84
2023-05-10T17:37:13.840Z,100310.03
2023-05-10T17:40:16.433Z,100329.16
2023-05-10T17:43:19.241Z,100313.06
2023-05-10T17:46:21.647Z,100333.09
2023-05-10T17:49:24.541Z,100323.78
2023-05-10T17:52:27.216Z,100340.12
2023-05-10T17:55:30.838Z,100322.47
2023-05-10T17:58:33.368Z,100341.66
2023-05-10T18:01:36.234Z,100342.31
2023-05-10T18:04:43.215Z,100334.19
2023-05-10T18:07:45.594Z,100323.38
2023-05-10T18:10:52.094Z,100332.50
2023-05-10T18:13:54.487Z,100350.06
2023-05-10T18:16:57.534Z,100354.41
2023-05-10T18:19:59.948Z,100354.75
2023-05-10T18:23:02.796Z,100329.81
2023-05-10T18:26:05.443Z,100345.72
2023-05-10T18:29:08.457Z,100368.09
2023-05-10T18:32:11.052Z,100299.53
2023-05-10T18:35:14.072Z,100365.63
2023-05-10T18:38:21.036Z,100370.31
2023-05-10T18:41:26.930Z,100348.59
2023-05-10T18:44:32.306Z,100314.78
2023-05-10T18:47:35.082Z,100375.78
2023-05-10T18:50:41.716Z,100362.37
2023-05-10T18:53:44.516Z,100357.56
2023-05-10T18:56:47.397Z,100323.69
2023-05-10T18:59:50.236Z,100344.03
2023-05-10T19:02:54.839Z,100383.88
2023-05-10T19:06:02.150Z,100339.59
2023-05-10T19:09:04.653Z,100354.47
2023-05-10T19:12:07.410Z,100380.84
2023-05-10T19:15:10.572Z,100392.84
2023-05-10T19:18:15.508Z,100405.53
2023-05-10T19:21:18.036Z,100403.97
2023-05-10T19:24:23.341Z,100366.97
2023-05-10T19:27:25.749Z,100396.63
2023-05-10T19:30:28.918Z,100397.81
2023-05-10T19:33:31.701Z,100382.84
2023-05-10T19:36:36.327Z,100380.78
2023-05-10T19:39:38.725Z,100382.75
2023-05-10T19:42:41.706Z,100398.56
2023-05-10T19:45:44.095Z,100404.25
2023-05-10T19:48:46.755Z,100398.09
2023-05-10T19:51:49.247Z,100404.72
2023-05-10T19:54:51.880Z,100401.91
2023-05-10T19:57:54.360Z,100403.00
2023-05-10T20:00:57.283Z,100343.75
2023-05-10T20:04:00.052Z,100333.88
2023-05-10T20:07:02.443Z,100404.69
2023-05-10T20:10:05.347Z,100399.37
2023-05-10T20:13:08.255Z,100397.53
2023-05-10T20:16:10.898Z,100376.31
2023-05-10T20:19:13.573Z,100379.50
2023-05-10T20:22:16.180Z,100398.16
2023-05-10T20:25:19.162Z,100385.97
2023-05-10T20:28:23.997Z,100400.69
2023-05-10T20:31:26.470Z,100399.97
2023-05-10T20:34:29.155Z,100400.19
2023-05-10T20:37:31.586Z,100383.28
2023-05-10T20:40:34.389Z,100405.94
2023-05-10T20:43:36.912Z,100382.69
2023-05-10T20:46:40.612Z,100378.41
2023-05-10T20:49:43.060Z,100407.75
2023-05-10T20:52:45.662Z,100382.19
2023-05-10T20:55:47.972Z,100377.78
2023-05-10T20:58:50.598Z,100386.09
2023-05-10T21:01:52.988Z,100386.19
2023-05-10T21:04:57.913Z,100385.63
2023-05-10T21:08:00.689Z,100371.31
2023-05-10T21:11:06.847Z,100381.53
2023-05-10T21:14:09.716Z,100389.53
2023-05-10T21:17:13.037Z,100397.81
2023-05-10T21:20:15.554Z,100399.50
2023-05-10T21:23:18.314Z,100378.50
2023-05-10T21:26:20.869Z,100379.16
2023-05-10T21:29:23.492Z,100372.09
2023-05-10T21:32:25.946Z,100389.41
2023-05-10T21:35:30.130Z,100376.47
2023-05-10T21:38:33.094Z,100398.31
2023-05-10T21:41:35.843Z,100405.44
2023-05-10T21:44:38.788Z,100405.44
2023-05-10T21:47:41.520Z,100400.34
2023-05-10T21:50:43.870Z,100384.72
2023-05-10T21:53:46.471Z,100373.09
2023-05-10T21:56:49.161Z,100385.16
2023-05-10T21:59:51.867Z,100383.97
2023-05-10T22:02:54.212Z,100399.00
2023-05-10T22:05:56.871Z,100392.91
2023-05-10T22:08:59.245Z,100380.16
2023-05-10T22:12:01.882Z,100409.00
2023-05-10T22:18:10.621Z,100389.44
2023-05-10T22:21:12.963Z,100417.50
2023-05-10T22:24:15.607Z,100396.13
2023-05-10T22:27:18.054Z,100417.06
2023-05-10T22:30:20.975Z,100426.53
2023-05-10T22:33:23.542Z,100402.41
2023-05-10T22:36:26.388Z,100396.06
2023-05-10T22:39:28.885Z,100389.53
2023-05-10T22:42:31.703Z,100404.44
2023-05-10T22:45:34.083Z,100403.13
2023-05-10T22:48:37.173Z,100422.06
2023-05-10T22:51:39.484Z,100399.87
2023-05-10T22:54:42.184Z,100423.84
2023-05-10T22:57:44.596Z,100428.94
2023-05-10T23:00:47.241Z,100402.84
2023-05-10T23:03:50.494Z,100411.50
2023-05-10T23:06:53.714Z,100423.69
2023-05-10T23:09:56.029Z,100408.19
2023-05-10T23:12:58.592Z,100436.53
2023-05-10T23:16:10.539Z,100428.94
2023-05-10T23:19:13.148Z,100429.66
2023-05-10T23:22:15.451Z,100429.56
2023-05-10T23:25:18.258Z,100433.50
2023-05-10T23:28:20.574Z,100412.47
2023-05-10T23:31:23.210Z,100426.59
2023-05-10T23:34:25.603Z,100430.97
2023-05-10T23:37:28.373Z,100434.00
2023-05-10T23:40:30.671Z,100430.78
2023-05-10T23:43:33.296Z,100426.66
2023-05-10T23:46:35.593Z,100432.19
2023-05-10T23:49:38.579Z,100408.06
2023-05-10T23:52:40.955Z,100429.69
2023-05-10T23:55:43.665Z,100444.69
2023-05-10T23:58:46.441Z,100449.53
